Time;durP1;ratioP1;P1;durP2;ratioP2;P2;SDS_P1;SDS_P2;PMS_P1;PMS_P2;Temp;Humidity;BMP_temperature;BMP_pressure;BME280_temperature;BME280_humidity;BME280_pressure;Samples;Min_cycle;Max_cycle;Signal;HPM_P1;HPM_P2
2020/12/03 00:02:17;;;;;;;9.73;6.55;;;4.80;99.90;;;;;;5110841;28;20225;-49
2020/12/03 00:05:22;;;;;;;10.63;7.00;;;4.90;99.90;;;;;;5110723;28;20371;-53
2020/12/03 00:08:29;;;;;;;8.77;6.68;;;5.00;99.90;;;;;;5111321;28;20032;-49
2020/12/03 00:11:43;;;;;;;8.90;6.43;;;5.00;99.90;;;;;;5110604;28;20028;-48
2020/12/03 00:14:48;;;;;;;9.93;6.35;;;4.90;99.90;;;;;;5111043;28;20454;-51
2020/12/03 00:17:52;;;;;;;32.25;7.85;;;4.80;99.90;;;;;;5111162;28;20031;-49
2020/12/03 00:20:56;;;;;;;367.98;27.60;;;4.60;99.90;;;;;;5110185;28;20035;-49
2020/12/03 00:24:15;;;;;;;47.30;9.18;;;4.30;99.90;;;;;;5111034;28;20043;-49
2020/12/03 00:27:20;;;;;;;74.43;11.68;;;4.40;99.90;;;;;;5111184;28;20035;-49
2020/12/03 00:30:24;;;;;;;11.50;7.25;;;4.40;99.90;;;;;;5110500;28;20038;-49
2020/12/03 00:33:29;;;;;;;10.75;6.97;;;4.50;99.90;;;;;;5110998;28;20043;-49
2020/12/03 00:36:34;;;;;;;10.35;6.63;;;4.60;99.90;;;;;;5110888;28;20039;-48
2020/12/03 00:39:38;;;;;;;8.05;5.88;;;4.70;99.90;;;;;;5121859;27;20050;-49
2020/12/03 00:42:42;;;;;;;7.20;5.35;;;4.70;99.90;;;;;;5110469;28;20044;-49
2020/12/03 00:45:47;;;;;;;7.25;5.10;;;4.80;99.90;;;;;;5110827;28;20035;-49
2020/12/03 00:48:52;;;;;;;7.15;5.10;;;4.90;99.90;;;;;;5111089;28;20044;-50
2020/12/03 00:51:56;;;;;;;7.38;4.85;;;4.90;99.90;;;;;;5109286;28;20043;-49
2020/12/03 00:55:08;;;;;;;8.65;5.97;;;5.00;99.90;;;;;;5110814;28;20035;-50
2020/12/03 00:58:13;;;;;;;8.02;5.82;;;4.90;99.90;;;;;;5110034;28;20035;-49
2020/12/03 01:01:19;;;;;;;10.05;6.35;;;4.90;99.90;;;;;;5110307;28;20582;-48
2020/12/03 01:04:24;;;;;;;10.88;7.20;;;5.00;99.90;;;;;;5110810;28;20516;-50
2020/12/03 01:07:28;;;;;;;10.93;7.15;;;5.10;99.90;;;;;;5110983;28;20043;-51
2020/12/03 01:10:34;;;;;;;10.85;7.00;;;5.20;99.90;;;;;;5110769;28;20413;-52
2020/12/03 01:13:38;;;;;;;32.85;8.85;;;5.20;99.90;;;;;;5110939;28;20054;-49
2020/12/03 01:16:45;;;;;;;825.70;56.50;;;4.60;99.90;;;;;;5112445;27;20040;-53
2020/12/03 01:19:50;;;;;;;28.42;9.57;;;4.50;99.90;;;;;;5128044;27;20058;-52
2020/12/03 01:22:56;;;;;;;426.17;31.13;;;4.50;99.90;;;;;;5109528;28;20518;-49
2020/12/03 01:26:00;;;;;;;333.02;25.58;;;4.50;99.90;;;;;;5109106;28;20042;-52
2020/12/03 01:29:04;;;;;;;949.13;65.10;;;4.40;99.90;;;;;;5110018;28;20058;-49
2020/12/03 01:32:08;;;;;;;776.10;52.20;;;4.40;99.90;;;;;;5109608;28;20043;-51
2020/12/03 01:35:13;;;;;;;970.33;61.28;;;4.30;99.90;;;;;;5110726;28;20066;-50
2020/12/03 01:38:18;;;;;;;577.97;43.30;;;4.20;99.90;;;;;;5110102;28;20405;-50
2020/12/03 01:41:22;;;;;;;71.10;13.93;;;4.30;99.90;;;;;;5109357;28;20043;-49
2020/12/03 01:44:55;;;;;;;574.63;40.20;;;4.40;99.90;;;;;;5109786;28;20393;-53
2020/12/03 01:47:59;;;;;;;107.05;13.98;;;4.40;99.90;;;;;;5112093;28;20402;-49
2020/12/03 01:51:31;;;;;;;85.45;13.68;;;4.50;99.90;;;;;;5109471;28;20398;-48
2020/12/03 01:54:36;;;;;;;;;;;4.60;99.90;;;;;;5110004;28;20525;-51
2020/12/03 01:57:53;;;;;;;156.85;15.90;;;4.70;99.90;;;;;;5109718;28;19915;-49
2020/12/03 02:01:00;;;;;;;451.75;30.52;;;4.70;99.90;;;;;;5109371;28;20051;-48
2020/12/03 02:04:05;;;;;;;314.30;23.63;;;4.70;99.90;;;;;;5109098;28;20054;-52
2020/12/03 02:07:13;;;;;;;16.35;9.27;;;4.60;99.90;;;;;;5109365;28;20050;-50
2020/12/03 02:10:20;;;;;;;14.60;8.40;;;4.50;99.90;;;;;;5109368;28;20027;-49
2020/12/03 02:13:24;;;;;;;13.05;8.43;;;4.40;99.90;;;;;;5108585;28;20039;-49
2020/12/03 02:16:35;;;;;;;10.02;6.57;;;4.40;99.90;;;;;;5124033;28;20043;-49
2020/12/03 02:19:41;;;;;;;11.50;7.35;;;4.50;99.90;;;;;;5109090;28;20044;-49
2020/12/03 02:22:45;;;;;;;11.68;7.32;;;4.60;99.90;;;;;;5108794;28;20062;-50
2020/12/03 02:25:50;;;;;;;11.43;7.43;;;4.70;99.90;;;;;;5109163;28;20058;-55
2020/12/03 02:28:54;;;;;;;9.30;6.57;;;4.80;99.90;;;;;;5110690;28;20048;-48
2020/12/03 02:31:58;;;;;;;10.20;6.75;;;4.80;99.90;;;;;;5112530;28;20036;-49
2020/12/03 02:35:04;;;;;;;10.18;6.90;;;4.90;99.90;;;;;;5113171;28;20039;-51
2020/12/03 02:38:09;;;;;;;34.50;11.65;;;4.90;99.90;;;;;;5121061;27;20031;-51
2020/12/03 02:41:14;;;;;;;63.83;13.00;;;5.00;99.90;;;;;;5112459;28;20055;-49
2020/12/03 02:44:18;;;;;;;19.95;10.65;;;5.00;99.90;;;;;;5112340;28;20090;-50
2020/12/03 02:47:23;;;;;;;78.30;13.63;;;5.00;99.90;;;;;;5112917;27;20043;-50
2020/12/03 02:50:27;;;;;;;83.95;12.25;;;5.00;99.90;;;;;;5112511;28;20054;-49
2020/12/03 02:53:32;;;;;;;28.58;8.10;;;5.10;99.90;;;;;;5112445;28;20051;-49
2020/12/03 02:56:37;;;;;;;49.25;10.70;;;4.90;99.90;;;;;;5112710;28;20031;-49
2020/12/03 02:59:41;;;;;;;39.97;11.48;;;4.80;99.90;;;;;;5112473;28;20043;-48
2020/12/03 03:02:45;;;;;;;122.53;16.45;;;4.80;99.90;;;;;;5111960;28;20050;-52
2020/12/03 03:05:49;;;;;;;55.08;15.73;;;4.80;99.90;;;;;;5112442;28;20043;-51
2020/12/03 03:08:53;;;;;;;154.75;17.85;;;4.80;99.90;;;;;;5126887;27;20401;-52
2020/12/03 03:11:58;;;;;;;275.73;19.90;;;4.90;99.90;;;;;;5131616;27;20046;-49
2020/12/03 03:15:04;;;;;;;86.10;14.85;;;5.00;99.90;;;;;;5132908;27;20030;-49
2020/12/03 03:18:09;;;;;;;95.30;13.95;;;4.90;99.90;;;;;;5120808;27;20108;-48
2020/12/03 03:21:13;;;;;;;231.00;23.63;;;4.90;99.90;;;;;;5132272;27;20038;-48
2020/12/03 03:24:17;;;;;;;110.20;19.25;;;4.80;99.90;;;;;;5131760;27;20047;-49
2020/12/03 03:27:21;;;;;;;270.77;25.00;;;4.80;99.90;;;;;;5132526;27;20039;-53
2020/12/03 03:30:25;;;;;;;45.53;12.02;;;4.80;99.90;;;;;;5132432;27;20062;-54
2020/12/03 03:33:29;;;;;;;163.20;19.05;;;4.80;99.90;;;;;;5132321;27;20042;-46
2020/12/03 03:36:33;;;;;;;68.10;15.38;;;4.60;99.90;;;;;;5132108;27;20046;-48
2020/12/03 03:39:37;;;;;;;100.68;15.23;;;4.60;99.90;;;;;;5132223;27;20061;-51
2020/12/03 03:42:42;;;;;;;25.27;12.10;;;4.60;99.90;;;;;;5130874;27;20053;-52
2020/12/03 03:45:46;;;;;;;201.60;20.13;;;4.60;99.90;;;;;;5132294;27;20035;-51
2020/12/03 03:48:50;;;;;;;102.82;16.73;;;4.70;99.90;;;;;;5120937;27;20038;-51
2020/12/03 03:51:55;;;;;;;89.53;14.45;;;4.70;99.90;;;;;;5131591;27;20038;-48
2020/12/03 03:54:59;;;;;;;106.00;15.50;;;4.70;99.90;;;;;;5132359;27;20097;-50
2020/12/03 03:58:08;;;;;;;71.50;14.80;;;4.80;99.90;;;;;;5132310;27;20066;-52
2020/12/03 04:01:12;;;;;;;78.43;14.88;;;4.80;99.90;;;;;;5132192;27;20488;-49
2020/12/03 04:04:16;;;;;;;82.72;16.67;;;4.80;99.90;;;;;;5131632;27;20113;-49
2020/12/03 04:07:20;;;;;;;37.42;13.23;;;4.80;99.90;;;;;;5118633;27;20038;-49
2020/12/03 04:10:25;;;;;;;36.15;14.88;;;4.90;99.90;;;;;;5131570;27;20393;-50
2020/12/03 04:13:29;;;;;;;28.17;12.95;;;4.90;99.90;;;;;;5131349;27;20046;-49
2020/12/03 04:16:33;;;;;;;29.90;14.00;;;5.00;99.90;;;;;;5131972;27;20508;-49
2020/12/03 04:19:37;;;;;;;28.10;13.13;;;5.00;99.90;;;;;;5131543;27;20046;-51
2020/12/03 04:22:41;;;;;;;23.13;12.40;;;5.00;99.90;;;;;;5117020;27;20053;-49
2020/12/03 04:25:47;;;;;;;21.90;11.15;;;4.90;99.90;;;;;;5131303;27;20058;-49
2020/12/03 04:28:51;;;;;;;22.00;10.75;;;4.90;99.90;;;;;;5131295;27;20046;-49
2020/12/03 04:31:55;;;;;;;18.35;10.18;;;5.00;99.90;;;;;;5131086;27;20062;-49
2020/12/03 04:35:00;;;;;;;20.33;10.73;;;5.00;99.90;;;;;;5130780;27;20042;-49
2020/12/03 04:38:09;;;;;;;19.52;9.93;;;5.10;99.90;;;;;;5121175;27;20512;-49
2020/12/03 04:41:13;;;;;;;20.45;10.25;;;5.10;99.90;;;;;;5130801;27;20046;-47
2020/12/03 04:44:21;;;;;;;19.45;10.90;;;5.10;99.90;;;;;;5130900;27;20385;-49
2020/12/03 04:47:50;;;;;;;22.15;11.32;;;5.10;99.90;;;;;;5131332;27;20034;-49
2020/12/03 04:51:09;;;;;;;20.85;10.75;;;5.10;99.90;;;;;;5125195;27;20038;-55
2020/12/03 04:54:25;;;;;;;26.95;11.77;;;5.00;99.90;;;;;;5130847;27;20054;-49
2020/12/03 04:57:50;;;;;;;26.30;11.95;;;5.00;99.90;;;;;;5123478;27;20038;-49
2020/12/03 05:01:33;;;;;;;26.55;11.40;;;4.90;99.90;;;;;;5123370;27;20058;-50
2020/12/03 05:05:05;;;;;;;26.05;10.80;;;5.00;99.90;;;;;;5121934;27;20512;-50
2020/12/03 05:08:24;;;;;;;26.33;12.13;;;5.00;99.90;;;;;;5130201;27;20050;-50
2020/12/03 05:11:38;;;;;;;27.05;12.02;;;5.00;99.90;;;;;;5129674;27;20046;-52
2020/12/03 05:14:47;;;;;;;25.40;12.43;;;5.00;99.90;;;;;;5129794;27;20046;-53
2020/12/03 05:18:22;;;;;;;21.98;11.48;;;5.00;99.90;;;;;;5120152;27;20536;-49
2020/12/03 05:21:30;;;;;;;55.15;14.02;;;5.10;99.90;;;;;;5125519;27;20043;-54
2020/12/03 05:24:34;;;;;;;154.23;19.73;;;5.00;99.90;;;;;;5120125;27;20054;-49
2020/12/03 05:27:39;;;;;;;170.38;17.08;;;5.00;99.90;;;;;;5125541;27;20118;-49
2020/12/03 05:30:43;;;;;;;22.27;11.13;;;5.00;99.90;;;;;;5118804;27;20520;-49
2020/12/03 05:33:48;;;;;;;136.88;19.65;;;5.00;99.90;;;;;;5113689;27;20062;-49
2020/12/03 05:36:55;;;;;;;101.68;14.93;;;4.90;99.90;;;;;;5125288;27;20050;-49
2020/12/03 05:40:00;;;;;;;26.35;10.80;;;5.00;99.90;;;;;;5116545;28;20423;-51
2020/12/03 05:43:04;;;;;;;230.77;21.17;;;5.00;99.90;;;;;;5128537;28;20050;-49
2020/12/03 05:46:14;;;;;;;477.75;29.98;;;5.00;99.90;;;;;;5123314;28;20039;-51
2020/12/03 05:49:21;;;;;;;85.10;10.35;;;5.00;99.90;;;;;;5122156;28;20428;-49
2020/12/03 05:52:27;;;;;;;274.80;19.08;;;5.00;99.90;;;;;;5116815;28;20409;-50
2020/12/03 05:55:33;;;;;;;539.53;34.72;;;4.90;99.90;;;;;;5117277;28;20039;-49
2020/12/03 05:58:37;;;;;;;366.83;28.15;;;4.90;99.90;;;;;;5113521;28;20039;-52
2020/12/03 06:02:16;;;;;;;114.43;13.10;;;4.90;99.90;;;;;;5127460;28;20045;-49
2020/12/03 06:05:57;;;;;;;18.58;8.60;;;4.90;99.90;;;;;;5104413;27;20417;-49
2020/12/03 06:09:18;;;;;;;63.08;11.50;;;4.90;99.90;;;;;;5118975;27;20044;-51
2020/12/03 06:12:50;;;;;;;139.60;14.07;;;4.90;99.90;;;;;;5124934;27;20038;-49
2020/12/03 06:16:04;;;;;;;38.05;11.23;;;4.90;99.90;;;;;;5122512;27;20046;-50
2020/12/03 06:19:37;;;;;;;30.05;8.75;;;5.00;99.90;;;;;;5125676;27;20504;-49
2020/12/03 06:22:56;;;;;;;89.57;11.77;;;5.00;99.90;;;;;;5113360;27;20044;-51
2020/12/03 06:26:32;;;;;;;63.03;11.32;;;5.00;99.90;;;;;;5113146;27;20039;-50
2020/12/03 06:30:00;;;;;;;94.05;13.38;;;5.00;99.90;;;;;;5117180;27;20520;-50
2020/12/03 06:33:41;;;;;;;12.30;6.55;;;5.00;99.90;;;;;;5119285;27;20447;-52
2020/12/03 06:36:56;;;;;;;13.10;6.32;;;5.00;99.90;;;;;;5100202;28;20049;-49
2020/12/03 06:40:14;;;;;;;10.85;6.38;;;5.00;99.90;;;;;;5114502;27;20050;-54
2020/12/03 06:43:33;;;;;;;50.08;7.32;;;4.90;99.90;;;;;;5122289;27;20042;-48
2020/12/03 06:46:56;;;;;;;23.33;7.25;;;4.90;99.90;;;;;;5119146;27;20032;-46
2020/12/03 06:50:31;;;;;;;17.70;6.20;;;4.80;99.90;;;;;;5113801;27;20398;-48
2020/12/03 06:54:03;;;;;;;12.60;6.97;;;4.80;99.90;;;;;;5116098;27;20043;-49
2020/12/03 06:57:38;;;;;;;12.98;5.93;;;4.90;99.90;;;;;;5114167;27;20607;-50
2020/12/03 07:01:01;;;;;;;10.10;5.63;;;4.90;99.90;;;;;;5113934;27;20052;-50
2020/12/03 07:04:30;;;;;;;10.40;6.18;;;5.00;99.90;;;;;;5113630;27;20044;-51
2020/12/03 07:07:46;;;;;;;8.93;6.18;;;5.00;99.90;;;;;;5117059;27;20046;-48
2020/12/03 07:11:13;;;;;;;11.32;6.30;;;5.00;99.90;;;;;;5128912;27;20031;-49
2020/12/03 07:14:54;;;;;;;14.30;7.90;;;5.10;99.90;;;;;;5118958;27;20054;-47
2020/12/03 07:18:31;;;;;;;13.93;8.27;;;5.20;99.90;;;;;;5127979;27;20046;-47
2020/12/03 07:21:52;;;;;;;15.73;9.32;;;5.40;99.90;;;;;;5127701;27;20048;-48
2020/12/03 07:24:58;;;;;;;15.27;8.70;;;5.70;99.90;;;;;;5118074;27;20045;-50
2020/12/03 07:28:12;;;;;;;13.23;8.73;;;5.90;99.90;;;;;;5113400;27;20031;-45
2020/12/03 07:31:31;;;;;;;12.82;7.45;;;6.00;99.90;;;;;;5127665;27;20039;-50
2020/12/03 07:34:46;;;;;;;26.20;6.95;;;6.10;99.90;;;;;;5126675;27;20401;-51
2020/12/03 07:38:09;;;;;;;86.47;8.55;;;6.10;99.90;;;;;;5114674;27;20039;-49
2020/12/03 07:41:19;;;;;;;545.03;33.60;;;6.00;99.90;;;;;;5114648;27;20039;-50
2020/12/03 07:44:26;;;;;;;489.10;31.60;;;6.00;99.90;;;;;;5114360;27;20047;-45
2020/12/03 07:47:36;;;;;;;391.85;31.02;;;6.10;99.90;;;;;;5113033;27;20035;-50
2020/12/03 07:51:02;;;;;;;34.85;6.80;;;6.10;99.90;;;;;;5112612;27;20657;-48
2020/12/03 07:54:16;;;;;;;9.52;5.85;;;6.20;99.90;;;;;;5112832;27;20045;-48
2020/12/03 07:57:38;;;;;;;11.93;5.97;;;6.60;99.90;;;;;;5112860;27;20343;-49
2020/12/03 08:00:46;;;;;;;6.90;5.07;;;6.90;99.90;;;;;;5113950;27;20516;-49
2020/12/03 08:03:51;;;;;;;8.15;5.50;;;7.10;99.90;;;;;;5114147;27;20061;-47
2020/12/03 08:07:04;;;;;;;8.88;6.07;;;7.20;99.90;;;;;;5112953;27;20035;-46
2020/12/03 08:10:37;;;;;;;7.45;5.15;;;7.30;99.90;;;;;;5114936;27;20031;-46
2020/12/03 08:13:42;;;;;;;6.23;4.63;;;7.50;99.90;;;;;;5115292;27;20387;-47
2020/12/03 08:16:46;;;;;;;7.20;4.93;;;7.80;99.90;;;;;;5114382;27;20767;-46
2020/12/03 08:20:02;;;;;;;6.03;4.60;;;8.10;99.90;;;;;;5110966;27;20039;-47
2020/12/03 08:23:11;;;;;;;6.35;4.60;;;8.40;99.90;;;;;;5111575;27;20028;-48
2020/12/03 08:26:23;;;;;;;5.22;3.78;;;8.90;99.90;;;;;;5111262;27;20027;-46
2020/12/03 08:29:37;;;;;;;17.67;8.73;;;9.60;99.90;;;;;;5114740;27;20039;-50
2020/12/03 08:33:27;;;;;;;26.90;13.43;;;10.00;99.90;;;;;;5113495;27;20047;-47
2020/12/03 08:36:32;;;;;;;11.63;7.00;;;9.80;99.90;;;;;;5044941;28;20108;-47
2020/12/03 08:39:37;;;;;;;25.67;14.77;;;9.40;99.90;;;;;;5046640;27;20072;-46
2020/12/03 08:42:41;;;;;;;246.57;26.98;;;8.50;99.90;;;;;;5112344;27;20532;-50
2020/12/03 08:45:55;;;;;;;394.40;26.98;;;7.80;99.90;;;;;;5113892;27;20393;-48
2020/12/03 08:49:00;;;;;;;448.92;30.02;;;7.00;99.90;;;;;;5110023;27;20034;-47
2020/12/03 08:52:04;;;;;;;154.95;16.23;;;6.90;99.90;;;;;;5105489;27;20402;-46
2020/12/03 08:55:10;;;;;;;443.70;29.73;;;6.70;99.90;;;;;;5111434;27;20043;-46
2020/12/03 08:58:19;;;;;;;27.42;9.82;;;6.90;99.90;;;;;;5111566;27;20043;-46
2020/12/03 09:01:25;;;;;;;163.43;12.07;;;7.20;99.90;;;;;;5115769;27;20050;-46
2020/12/03 09:04:33;;;;;;;394.95;24.65;;;7.30;99.90;;;;;;5111370;27;20047;-47
2020/12/03 09:07:44;;;;;;;197.73;14.05;;;7.50;99.90;;;;;;5113536;27;20043;-47
2020/12/03 09:10:55;;;;;;;49.55;9.57;;;7.70;99.90;;;;;;5108964;28;20047;-44
2020/12/03 09:14:01;;;;;;;49.13;8.90;;;7.90;99.90;;;;;;5108475;27;20051;-45
2020/12/03 09:17:09;;;;;;;10.93;6.88;;;8.00;99.90;;;;;;5112478;27;20043;-47
2020/12/03 09:20:14;;;;;;;10.93;7.30;;;8.30;99.90;;;;;;5116474;27;20031;-46
2020/12/03 09:23:22;;;;;;;9.80;7.30;;;8.50;99.90;;;;;;5120273;27;20046;-47
2020/12/03 09:26:30;;;;;;;12.32;6.50;;;9.20;99.90;;;;;;5111279;27;20023;-46
2020/12/03 09:29:35;;;;;;;8.73;6.50;;;10.00;99.90;;;;;;5113239;27;20030;-46
2020/12/03 09:32:41;;;;;;;7.20;5.43;;;9.60;99.90;;;;;;5113934;27;20035;-48
2020/12/03 09:35:48;;;;;;;10.10;6.53;;;9.70;99.90;;;;;;5111110;28;20485;-47
2020/12/03 09:38:57;;;;;;;8.57;6.10;;;9.00;99.90;;;;;;5109112;28;20042;-46
2020/12/03 09:42:10;;;;;;;8.05;6.32;;;8.60;99.90;;;;;;5108540;28;20047;-44
2020/12/03 09:45:19;;;;;;;6.93;5.60;;;8.90;99.90;;;;;;5109895;28;20032;-47
2020/12/03 09:48:26;;;;;;;5.38;4.05;;;9.00;99.90;;;;;;5109618;28;20036;-46
2020/12/03 09:51:34;;;;;;;5.18;4.10;;;9.50;99.90;;;;;;5109355;28;20035;-51
2020/12/03 09:54:39;;;;;;;6.75;4.45;;;9.50;99.90;;;;;;5111833;28;20043;-45
2020/12/03 09:57:58;;;;;;;4.72;3.78;;;9.10;99.90;;;;;;5108473;28;20043;-46
2020/12/03 10:01:06;;;;;;;5.20;3.72;;;9.10;99.90;;;;;;5107482;28;20387;-44
2020/12/03 10:04:29;;;;;;;5.00;4.00;;;9.20;99.90;;;;;;5108221;28;20039;-45
2020/12/03 10:07:51;;;;;;;6.30;3.70;;;9.50;99.90;;;;;;5110906;28;20036;-45
2020/12/03 10:11:08;;;;;;;4.30;3.03;;;9.60;99.90;;;;;;5110516;28;20028;-45
2020/12/03 10:14:24;;;;;;;3.65;3.00;;;10.00;99.90;;;;;;5110562;28;20043;-49
2020/12/03 10:17:42;;;;;;;4.07;3.20;;;10.40;99.90;;;;;;5112582;28;20500;-47
2020/12/03 10:20:51;;;;;;;3.53;2.95;;;10.90;99.90;;;;;;5110223;28;20031;-47
2020/12/03 10:24:11;;;;;;;5.18;3.15;;;11.20;99.90;;;;;;5115759;28;20039;-45
2020/12/03 10:27:30;;;;;;;5.22;2.90;;;11.40;99.90;;;;;;5114387;28;20042;-47
2020/12/03 10:30:39;;;;;;;6.57;3.05;;;11.30;99.90;;;;;;5116444;28;20063;-45
2020/12/03 10:33:48;;;;;;;5.25;3.22;;;11.00;99.90;;;;;;5117146;28;20308;-46
2020/12/03 10:37:03;;;;;;;5.75;3.17;;;10.80;99.90;;;;;;5107176;28;20047;-47
2020/12/03 10:40:19;;;;;;;5.25;3.60;;;10.00;99.90;;;;;;5112709;28;20047;-45
2020/12/03 10:43:48;;;;;;;5.53;3.55;;;9.20;99.90;;;;;;5111080;28;20043;-47
2020/12/03 10:46:57;;;;;;;4.80;3.92;;;9.00;99.90;;;;;;5110090;28;20031;-47
2020/12/03 10:50:02;;;;;;;5.15;4.10;;;8.90;99.90;;;;;;5108711;27;20028;-44
2020/12/03 10:53:09;;;;;;;4.72;4.18;;;8.90;99.90;;;;;;5116001;27;20031;-45
2020/12/03 10:56:15;;;;;;;5.65;4.63;;;8.50;99.90;;;;;;5116444;27;20036;-45
2020/12/03 10:59:24;;;;;;;5.72;4.30;;;8.40;99.90;;;;;;5117950;27;20031;-47
2020/12/03 11:02:42;;;;;;;4.72;4.03;;;8.40;99.90;;;;;;5116621;27;20028;-45
2020/12/03 11:05:47;;;;;;;4.57;3.67;;;7.90;99.90;;;;;;5116047;27;20027;-46
2020/12/03 11:08:52;;;;;;;5.82;3.42;;;8.30;99.90;;;;;;5114476;27;20036;-47
2020/12/03 11:11:56;;;;;;;3.28;2.80;;;8.80;99.90;;;;;;5116652;27;20036;-46
2020/12/03 11:15:05;;;;;;;4.05;2.72;;;9.30;99.90;;;;;;5115048;27;20493;-47
2020/12/03 11:18:12;;;;;;;6.55;2.08;;;9.80;99.90;;;;;;5117890;27;20115;-47
2020/12/03 11:21:25;;;;;;;2.22;2.00;;;10.30;99.90;;;;;;5116397;27;20035;-46
2020/12/03 11:24:42;;;;;;;2.38;1.90;;;10.40;99.90;;;;;;5113536;27;20044;-45
2020/12/03 11:27:46;;;;;;;4.50;2.20;;;10.40;99.90;;;;;;5114394;27;20038;-46
2020/12/03 11:31:02;;;;;;;3.38;2.13;;;10.50;99.90;;;;;;5114757;27;20046;-45
2020/12/03 11:34:07;;;;;;;2.60;2.15;;;10.80;99.90;;;;;;5111364;27;20044;-44
2020/12/03 11:37:11;;;;;;;3.70;1.92;;;10.90;99.90;;;;;;5117246;27;20028;-47
2020/12/03 11:40:22;;;;;;;2.35;2.10;;;11.10;99.90;;;;;;5116108;27;20047;-44
2020/12/03 11:50:18;;;;;;;2.90;2.00;;;11.40;99.90;;;;;;5118314;27;20673;-46
2020/12/03 11:53:24;;;;;;;2.67;2.00;;;11.50;99.90;;;;;;5115308;27;20032;-44
2020/12/03 11:56:29;;;;;;;3.72;2.38;;;11.40;99.90;;;;;;5111029;27;20035;-46
2020/12/03 11:59:34;;;;;;;3.85;2.47;;;11.20;99.90;;;;;;5113090;27;20048;-47
2020/12/03 12:02:38;;;;;;;2.72;2.15;;;10.90;99.90;;;;;;5113083;27;20532;-47
2020/12/03 12:08:54;;;;;;;3.10;1.88;;;10.80;99.90;;;;;;5111345;27;20042;-44
2020/12/03 12:11:58;;;;;;;2.20;1.80;;;10.70;99.90;;;;;;5111129;27;20552;-45
2020/12/03 12:15:04;;;;;;;3.92;1.88;;;10.40;99.90;;;;;;5112369;27;20048;-46
2020/12/03 12:18:08;;;;;;;3.28;1.77;;;10.30;99.90;;;;;;5113428;27;20417;-46
2020/12/03 12:21:13;;;;;;;2.08;1.75;;;10.50;99.90;;;;;;5109774;27;20036;-45
2020/12/03 12:24:17;;;;;;;2.58;1.55;;;10.70;99.90;;;;;;5111263;27;20038;-46
2020/12/03 12:27:21;;;;;;;3.30;1.85;;;11.00;99.90;;;;;;5109826;27;20398;-45
2020/12/03 12:30:25;;;;;;;2.47;1.60;;;11.70;99.90;;;;;;5113916;27;20042;-46
2020/12/03 12:33:30;;;;;;;4.22;1.73;;;12.40;99.90;;;;;;5115119;27;20051;-45
2020/12/03 12:36:34;;;;;;;2.83;1.77;;;13.30;99.90;;;;;;5110534;27;20044;-45
2020/12/03 12:39:39;;;;;;;2.75;2.10;;;14.10;99.90;;;;;;5114622;27;20401;-45
2020/12/03 12:42:44;;;;;;;2.58;2.00;;;14.30;99.90;;;;;;5108675;27;20043;-46
2020/12/03 12:45:48;;;;;;;2.67;1.70;;;14.20;99.90;;;;;;5108862;27;20042;-46
2020/12/03 12:48:52;;;;;;;2.85;1.90;;;14.40;99.90;;;;;;5107544;27;20502;-46
2020/12/03 12:51:57;;;;;;;1.75;1.35;;;14.50;99.90;;;;;;5114815;27;20399;-46
2020/12/03 12:55:01;;;;;;;5.82;1.50;;;14.20;99.90;;;;;;5108724;27;20832;-45
2020/12/03 12:58:05;;;;;;;2.35;1.75;;;13.90;99.90;;;;;;5111766;27;20034;-46
2020/12/03 13:01:10;;;;;;;2.17;1.48;;;13.50;99.90;;;;;;5113266;27;20061;-45
2020/12/03 13:04:17;;;;;;;3.47;1.48;;;13.40;99.90;;;;;;5108267;27;20050;-47
2020/12/03 13:07:22;;;;;;;4.00;1.63;;;13.30;99.90;;;;;;5110319;27;20121;-44
2020/12/03 13:10:26;;;;;;;2.53;1.77;;;13.10;99.90;;;;;;5106100;28;20050;-46
2020/12/03 13:13:34;;;;;;;2.60;1.60;;;13.00;99.90;;;;;;5110859;27;20028;-47
2020/12/03 13:16:39;;;;;;;3.33;2.22;;;12.80;99.90;;;;;;5119105;27;20039;-44
2020/12/03 13:19:44;;;;;;;5.18;2.47;;;12.40;99.90;;;;;;5117494;27;20035;-45
2020/12/03 13:22:48;;;;;;;5.97;1.85;;;12.20;99.90;;;;;;5110386;27;20050;-45
2020/12/03 13:25:52;;;;;;;2.13;1.50;;;12.40;99.90;;;;;;5110802;27;20039;-48
2020/12/03 13:28:56;;;;;;;2.42;1.65;;;12.60;99.90;;;;;;5111150;27;20027;-45
2020/12/03 13:32:01;;;;;;;1.92;1.40;;;12.60;99.90;;;;;;5109910;27;20031;-45
2020/12/03 13:35:05;;;;;;;2.20;1.60;;;12.50;99.90;;;;;;5108150;28;20047;-46
2020/12/03 13:38:09;;;;;;;2.55;1.70;;;12.30;99.90;;;;;;5108079;28;20042;-47
2020/12/03 13:41:18;;;;;;;2.13;1.55;;;12.20;99.90;;;;;;5107567;28;20414;-45
2020/12/03 13:44:22;;;;;;;2.55;1.42;;;12.20;99.90;;;;;;5113588;28;20047;-46
2020/12/03 13:47:27;;;;;;;3.10;2.00;;;11.90;99.90;;;;;;5110103;28;20036;-45
2020/12/03 13:50:31;;;;;;;2.00;1.77;;;11.50;99.90;;;;;;5112237;28;20401;-46
2020/12/03 13:53:35;;;;;;;3.17;1.88;;;11.20;99.90;;;;;;5110795;28;20402;-45
2020/12/03 13:56:40;;;;;;;3.17;1.58;;;10.90;99.90;;;;;;5113678;28;20042;-44
2020/12/03 13:59:44;;;;;;;2.70;1.75;;;10.60;99.90;;;;;;5113706;28;20034;-45
2020/12/03 14:02:48;;;;;;;3.22;1.80;;;10.40;99.90;;;;;;5110382;28;20686;-46
2020/12/03 14:05:52;;;;;;;2.97;1.85;;;10.30;99.90;;;;;;5109263;28;20035;-44
2020/12/03 14:08:56;;;;;;;3.40;1.98;;;10.20;99.90;;;;;;5106820;28;20027;-45
2020/12/03 14:12:00;;;;;;;3.33;2.28;;;10.20;99.90;;;;;;5108484;28;20047;-46
2020/12/03 14:15:05;;;;;;;7.00;2.60;;;10.20;99.90;;;;;;5107526;28;20040;-46
2020/12/03 14:18:10;;;;;;;5.30;2.20;;;10.10;99.90;;;;;;5107535;28;20046;-48
2020/12/03 14:21:16;;;;;;;3.15;1.98;;;10.00;99.90;;;;;;5109688;28;20510;-45
2020/12/03 14:24:20;;;;;;;4.03;2.20;;;9.80;99.90;;;;;;5125916;27;20031;-45
2020/12/03 14:27:25;;;;;;;5.07;2.88;;;9.80;99.90;;;;;;5127009;27;20027;-46
2020/12/03 14:30:29;;;;;;;4.00;2.80;;;9.70;99.90;;;;;;5132098;27;20047;-46
2020/12/03 14:33:33;;;;;;;7.85;3.38;;;9.70;99.90;;;;;;5122316;27;20531;-52
2020/12/03 14:36:37;;;;;;;8.52;3.20;;;9.60;99.90;;;;;;5123080;27;20039;-46
2020/12/03 14:39:41;;;;;;;5.97;3.38;;;9.50;99.90;;;;;;5128058;27;20047;-46
2020/12/03 14:42:47;;;;;;;10.75;3.15;;;9.40;99.90;;;;;;5122196;27;20039;-46
2020/12/03 14:45:51;;;;;;;6.30;3.42;;;9.10;99.90;;;;;;5128887;27;20046;-46
2020/12/03 14:48:58;;;;;;;15.93;3.90;;;9.00;99.90;;;;;;5114677;27;20383;-46
2020/12/03 14:52:07;;;;;;;25.08;5.40;;;8.80;99.90;;;;;;5116777;27;20039;-46
2020/12/03 14:55:11;;;;;;;20.70;5.28;;;8.70;99.90;;;;;;5130848;27;20038;-49
2020/12/03 14:58:20;;;;;;;30.30;6.95;;;8.60;99.90;;;;;;5124888;27;20047;-46
2020/12/03 15:01:24;;;;;;;6.93;3.92;;;8.50;99.90;;;;;;5120712;27;20039;-46
2020/12/03 15:04:28;;;;;;;21.48;16.20;;;8.40;99.90;;;;;;5126675;27;20388;-46
2020/12/03 15:07:33;;;;;;;11.20;9.07;;;8.30;99.90;;;;;;5123473;27;20054;-48
2020/12/03 15:10:44;;;;;;;10.77;6.68;;;8.20;99.90;;;;;;5118171;27;20047;-46
2020/12/03 15:13:48;;;;;;;5.30;4.22;;;8.10;99.90;;;;;;5120398;27;20500;-46
2020/12/03 15:16:52;;;;;;;5.03;3.88;;;8.00;99.90;;;;;;5127405;27;20043;-47
2020/12/03 15:19:56;;;;;;;4.55;3.10;;;8.00;99.90;;;;;;5117961;27;20390;-46
2020/12/03 15:23:02;;;;;;;5.32;4.03;;;8.10;99.90;;;;;;5118713;27;20485;-46
2020/12/03 15:26:06;;;;;;;5.63;3.97;;;8.60;99.90;;;;;;5118576;27;20039;-51
2020/12/03 15:29:10;;;;;;;5.63;3.65;;;8.90;99.90;;;;;;5115436;27;20039;-49
2020/12/03 15:32:14;;;;;;;6.88;4.88;;;8.80;99.90;;;;;;5114874;27;20043;-49
2020/12/03 15:35:19;;;;;;;5.97;4.50;;;8.50;99.90;;;;;;5122897;27;20462;-45
2020/12/03 15:38:23;;;;;;;12.43;6.30;;;8.30;99.90;;;;;;5115781;27;20035;-47
2020/12/03 15:41:27;;;;;;;9.35;5.22;;;8.10;99.90;;;;;;5114711;27;20044;-48
2020/12/03 15:44:32;;;;;;;5.13;3.42;;;7.80;99.90;;;;;;5118663;27;20043;-44
2020/12/03 15:47:37;;;;;;;6.15;3.90;;;7.50;99.90;;;;;;5116852;27;20478;-48
2020/12/03 15:50:41;;;;;;;7.97;4.82;;;7.20;99.90;;;;;;5122780;27;20039;-48
2020/12/03 15:53:45;;;;;;;5.55;3.90;;;7.10;99.90;;;;;;5115116;27;20035;-46
2020/12/03 15:56:51;;;;;;;7.38;4.13;;;6.90;99.90;;;;;;5115128;27;20047;-44
2020/12/03 15:59:55;;;;;;;6.60;4.05;;;6.80;99.90;;;;;;5117693;27;20046;-45
2020/12/03 16:02:59;;;;;;;6.07;4.35;;;6.60;99.90;;;;;;5116166;27;20509;-46
2020/12/03 16:06:07;;;;;;;9.30;5.20;;;6.50;99.90;;;;;;5121583;27;20044;-45
2020/12/03 16:09:13;;;;;;;10.88;7.80;;;6.40;99.90;;;;;;5114984;27;20027;-45
2020/12/03 16:12:18;;;;;;;11.05;8.30;;;6.30;99.90;;;;;;5114261;27;20406;-45
2020/12/03 16:15:22;;;;;;;10.25;7.00;;;6.20;99.90;;;;;;5118996;27;20040;-45
2020/12/03 16:18:27;;;;;;;13.10;8.05;;;6.00;99.90;;;;;;5131791;27;20055;-48
2020/12/03 16:21:31;;;;;;;13.38;10.70;;;6.00;99.90;;;;;;5121560;27;20446;-47
2020/12/03 16:24:35;;;;;;;18.90;12.02;;;5.90;99.90;;;;;;5118787;27;20066;-47
2020/12/03 16:27:39;;;;;;;13.80;10.32;;;5.80;99.90;;;;;;5131602;27;20062;-48
2020/12/03 16:30:47;;;;;;;16.80;13.00;;;5.70;99.90;;;;;;5131273;27;20500;-44
2020/12/03 16:33:51;;;;;;;15.75;10.82;;;5.70;99.90;;;;;;5131041;27;20114;-47